sensor_id;sensor_type;location;lat;lon;timestamp;temperature;humidity
13322;DHT22;6730;46.248;6.930;2023-03-18T00:00:06;9.60;99.90
13322;DHT22;6730;46.248;6.930;2023-03-18T00:02:48;9.70;99.90
13322;DHT22;6730;46.248;6.930;2023-03-18T00:05:14;9.70;99.90
13322;DHT22;6730;46.248;6.930;2023-03-18T00:07:40;9.50;99.90
13322;DHT22;6730;46.248;6.930;2023-03-18T00:10:08;9.50;99.90
13322;DHT22;6730;46.248;6.930;2023-03-18T00:12:35;9.50;99.90
13322;DHT22;6730;46.248;6.930;2023-03-18T00:15:00;9.50;99.90
13322;DHT22;6730;46.248;6.930;2023-03-18T00:17:26;9.50;99.90
13322;DHT22;6730;46.248;6.930;2023-03-18T00:19:52;9.50;99.90
13322;DHT22;6730;46.248;6.930;2023-03-18T00:22:18;9.50;99.90
13322;DHT22;6730;46.248;6.930;2023-03-18T00:24:44;9.50;99.90
13322;DHT22;6730;46.248;6.930;2023-03-18T00:27:10;9.50;99.90
13322;DHT22;6730;46.248;6.930;2023-03-18T00:29:36;9.40;99.90
13322;DHT22;6730;46.248;6.930;2023-03-18T00:32:02;9.30;99.90
13322;DHT22;6730;46.248;6.930;2023-03-18T00:34:27;9.30;99.90
13322;DHT22;6730;46.248;6.930;2023-03-18T00:36:53;9.20;99.90
13322;DHT22;6730;46.248;6.930;2023-03-18T00:39:24;9.10;99.90
13322;DHT22;6730;46.248;6.930;2023-03-18T00:41:53;9.10;99.90
13322;DHT22;6730;46.248;6.930;2023-03-18T00:44:19;9.10;99.90
13322;DHT22;6730;46.248;6.930;2023-03-18T00:46:45;9.10;99.90
13322;DHT22;6730;46.248;6.930;2023-03-18T00:49:11;9.10;99.90
13322;DHT22;6730;46.248;6.930;2023-03-18T00:51:37;9.10;99.90
13322;DHT22;6730;46.248;6.930;2023-03-18T00:54:08;9.20;99.90
13322;DHT22;6730;46.248;6.930;2023-03-18T00:56:35;9.30;99.90
13322;DHT22;6730;46.248;6.930;2023-03-18T00:59:02;9.30;99.90
13322;DHT22;6730;46.248;6.930;2023-03-18T01:01:29;9.20;99.90
13322;DHT22;6730;46.248;6.930;2023-03-18T01:03:56;9.00;99.90
13322;DHT22;6730;46.248;6.930;2023-03-18T01:06:25;8.90;99.90
13322;DHT22;6730;46.248;6.930;2023-03-18T01:08:53;8.90;99.90
13322;DHT22;6730;46.248;6.930;2023-03-18T01:11:20;8.90;99.90
13322;DHT22;6730;46.248;6.930;2023-03-18T01:13:46;8.90;99.90
13322;DHT22;6730;46.248;6.930;2023-03-18T01:16:12;9.00;99.90
13322;DHT22;6730;46.248;6.930;2023-03-18T01:18:39;9.10;99.90
13322;DHT22;6730;46.248;6.930;2023-03-18T01:21:06;9.00;99.90
13322;DHT22;6730;46.248;6.930;2023-03-18T01:23:33;8.80;99.90
13322;DHT22;6730;46.248;6.930;2023-03-18T01:26:00;8.80;99.90
13322;DHT22;6730;46.248;6.930;2023-03-18T01:28:25;8.80;99.90
13322;DHT22;6730;46.248;6.930;2023-03-18T01:30:55;8.90;99.90
13322;DHT22;6730;46.248;6.930;2023-03-18T01:33:23;9.00;99.90
13322;DHT22;6730;46.248;6.930;2023-03-18T01:35:54;9.00;99.90
13322;DHT22;6730;46.248;6.930;2023-03-18T01:38:21;8.90;99.90
13322;DHT22;6730;46.248;6.930;2023-03-18T01:40:48;8.80;99.90
13322;DHT22;6730;46.248;6.930;2023-03-18T01:43:20;8.90;99.90
13322;DHT22;6730;46.248;6.930;2023-03-18T01:45:54;8.80;99.90
13322;DHT22;6730;46.248;6.930;2023-03-18T01:48:23;8.70;99.90
13322;DHT22;6730;46.248;6.930;2023-03-18T01:51:09;8.80;99.90
13322;DHT22;6730;46.248;6.930;2023-03-18T01:53:40;8.70;99.90
13322;DHT22;6730;46.248;6.930;2023-03-18T01:56:07;8.70;99.90
13322;DHT22;6730;46.248;6.930;2023-03-18T01:58:37;8.60;99.90
13322;DHT22;6730;46.248;6.930;2023-03-18T02:01:08;8.50;99.90
13322;DHT22;6730;46.248;6.930;2023-03-18T02:03:39;8.50;99.90
13322;DHT22;6730;46.248;6.930;2023-03-18T02:06:06;8.50;99.90
13322;DHT22;6730;46.248;6.930;2023-03-18T02:08:31;8.60;99.90
13322;DHT22;6730;46.248;6.930;2023-03-18T02:10:57;8.60;99.90
13322;DHT22;6730;46.248;6.930;2023-03-18T02:13:23;8.60;99.90
13322;DHT22;6730;46.248;6.930;2023-03-18T02:15:57;8.50;99.90
13322;DHT22;6730;46.248;6.930;2023-03-18T02:18:36;8.40;99.90
13322;DHT22;6730;46.248;6.930;2023-03-18T02:23:46;8.40;99.90
13322;DHT22;6730;46.248;6.930;2023-03-18T02:28:57;8.40;99.90
13322;DHT22;6730;46.248;6.930;2023-03-18T02:31:26;8.30;99.90
13322;DHT22;6730;46.248;6.930;2023-03-18T02:33:52;8.20;99.90
13322;DHT22;6730;46.248;6.930;2023-03-18T02:36:21;8.20;99.90
13322;DHT22;6730;46.248;6.930;2023-03-18T02:38:48;8.20;99.90
13322;DHT22;6730;46.248;6.930;2023-03-18T02:41:16;8.20;99.90
13322;DHT22;6730;46.248;6.930;2023-03-18T02:43:43;8.10;99.90
13322;DHT22;6730;46.248;6.930;2023-03-18T02:46:25;8.10;99.90
13322;DHT22;6730;46.248;6.930;2023-03-18T02:48:54;8.20;99.90
13322;DHT22;6730;46.248;6.930;2023-03-18T02:51:20;8.30;99.90
13322;DHT22;6730;46.248;6.930;2023-03-18T02:53:47;8.30;99.90
13322;DHT22;6730;46.248;6.930;2023-03-18T02:56:13;8.30;99.90
13322;DHT22;6730;46.248;6.930;2023-03-18T02:58:39;8.30;99.90
13322;DHT22;6730;46.248;6.930;2023-03-18T03:01:06;8.30;99.90
13322;DHT22;6730;46.248;6.930;2023-03-18T03:03:33;8.40;99.90
13322;DHT22;6730;46.248;6.930;2023-03-18T03:05:59;8.70;99.90
13322;DHT22;6730;46.248;6.930;2023-03-18T03:08:26;8.70;99.90
13322;DHT22;6730;46.248;6.930;2023-03-18T03:10:52;8.50;99.90
13322;DHT22;6730;46.248;6.930;2023-03-18T03:13:19;8.60;99.90
13322;DHT22;6730;46.248;6.930;2023-03-18T03:15:45;8.80;99.90
13322;DHT22;6730;46.248;6.930;2023-03-18T03:18:11;8.90;99.90
13322;DHT22;6730;46.248;6.930;2023-03-18T03:20:37;8.80;99.90
13322;DHT22;6730;46.248;6.930;2023-03-18T03:23:07;8.80;99.90
13322;DHT22;6730;46.248;6.930;2023-03-18T03:25:35;8.50;99.90
13322;DHT22;6730;46.248;6.930;2023-03-18T03:28:01;8.30;99.90
13322;DHT22;6730;46.248;6.930;2023-03-18T03:30:28;8.20;99.90
13322;DHT22;6730;46.248;6.930;2023-03-18T03:32:54;8.20;99.90
13322;DHT22;6730;46.248;6.930;2023-03-18T03:35:21;8.00;99.90
13322;DHT22;6730;46.248;6.930;2023-03-18T03:37:48;7.90;99.90
13322;DHT22;6730;46.248;6.930;2023-03-18T03:40:15;7.90;99.90
13322;DHT22;6730;46.248;6.930;2023-03-18T03:42:42;7.90;99.90
13322;DHT22;6730;46.248;6.930;2023-03-18T03:45:10;7.80;99.90
13322;DHT22;6730;46.248;6.930;2023-03-18T03:47:35;7.70;99.90
13322;DHT22;6730;46.248;6.930;2023-03-18T03:50:02;7.70;99.90
13322;DHT22;6730;46.248;6.930;2023-03-18T03:52:28;7.80;99.90
13322;DHT22;6730;46.248;6.930;2023-03-18T03:54:54;7.90;99.90
13322;DHT22;6730;46.248;6.930;2023-03-18T03:57:21;8.00;99.90
13322;DHT22;6730;46.248;6.930;2023-03-18T03:59:49;8.10;99.90
13322;DHT22;6730;46.248;6.930;2023-03-18T04:02:16;8.00;99.90
13322;DHT22;6730;46.248;6.930;2023-03-18T04:04:42;7.90;99.90
13322;DHT22;6730;46.248;6.930;2023-03-18T04:07:08;7.80;99.90
13322;DHT22;6730;46.248;6.930;2023-03-18T04:09:34;7.60;99.90
13322;DHT22;6730;46.248;6.930;2023-03-18T04:12:01;7.60;99.90
13322;DHT22;6730;46.248;6.930;2023-03-18T04:14:27;7.60;99.90
13322;DHT22;6730;46.248;6.930;2023-03-18T04:16:52;7.60;99.90
13322;DHT22;6730;46.248;6.930;2023-03-18T04:19:22;7.80;99.90
13322;DHT22;6730;46.248;6.930;2023-03-18T04:21:48;7.90;99.90
13322;DHT22;6730;46.248;6.930;2023-03-18T04:24:14;8.00;99.90
13322;DHT22;6730;46.248;6.930;2023-03-18T04:26:39;7.90;99.90
13322;DHT22;6730;46.248;6.930;2023-03-18T04:29:08;7.80;99.90
13322;DHT22;6730;46.248;6.930;2023-03-18T04:31:34;7.60;99.90
13322;DHT22;6730;46.248;6.930;2023-03-18T04:34:00;7.60;99.90
13322;DHT22;6730;46.248;6.930;2023-03-18T04:36:26;7.40;99.90
13322;DHT22;6730;46.248;6.930;2023-03-18T04:38:53;7.40;99.90
13322;DHT22;6730;46.248;6.930;2023-03-18T04:41:19;7.40;99.90
13322;DHT22;6730;46.248;6.930;2023-03-18T04:43:45;7.60;99.90
13322;DHT22;6730;46.248;6.930;2023-03-18T04:46:10;7.50;99.90
13322;DHT22;6730;46.248;6.930;2023-03-18T04:48:40;7.60;99.90
13322;DHT22;6730;46.248;6.930;2023-03-18T04:51:06;7.50;99.90
13322;DHT22;6730;46.248;6.930;2023-03-18T04:53:34;7.40;99.90
13322;DHT22;6730;46.248;6.930;2023-03-18T04:56:00;7.40;99.90
13322;DHT22;6730;46.248;6.930;2023-03-18T04:58:26;7.40;99.90
13322;DHT22;6730;46.248;6.930;2023-03-18T05:00:52;7.50;99.90
13322;DHT22;6730;46.248;6.930;2023-03-18T05:03:18;7.40;99.90
13322;DHT22;6730;46.248;6.930;2023-03-18T05:05:44;7.20;99.90
13322;DHT22;6730;46.248;6.930;2023-03-18T05:08:09;7.10;99.90
13322;DHT22;6730;46.248;6.930;2023-03-18T05:10:35;7.10;99.90
13322;DHT22;6730;46.248;6.930;2023-03-18T05:13:01;7.00;99.90
13322;DHT22;6730;46.248;6.930;2023-03-18T05:15:28;7.00;99.90
13322;DHT22;6730;46.248;6.930;2023-03-18T05:17:54;7.00;99.90
13322;DHT22;6730;46.248;6.930;2023-03-18T05:20:20;7.00;99.90
13322;DHT22;6730;46.248;6.930;2023-03-18T05:22:45;7.00;99.90
13322;DHT22;6730;46.248;6.930;2023-03-18T05:25:11;7.20;99.90
13322;DHT22;6730;46.248;6.930;2023-03-18T05:27:38;7.20;99.90
13322;DHT22;6730;46.248;6.930;2023-03-18T05:30:05;7.20;99.90
13322;DHT22;6730;46.248;6.930;2023-03-18T05:32:32;7.20;99.90
13322;DHT22;6730;46.248;6.930;2023-03-18T05:34:57;7.10;99.90
13322;DHT22;6730;46.248;6.930;2023-03-18T05:37:26;7.20;99.90
13322;DHT22;6730;46.248;6.930;2023-03-18T05:39:52;7.20;99.90
13322;DHT22;6730;46.248;6.930;2023-03-18T05:42:18;7.40;99.90
13322;DHT22;6730;46.248;6.930;2023-03-18T05:44:44;7.30;99.90
13322;DHT22;6730;46.248;6.930;2023-03-18T05:47:10;7.20;99.90
13322;DHT22;6730;46.248;6.930;2023-03-18T05:49:35;7.20;99.90
13322;DHT22;6730;46.248;6.930;2023-03-18T05:52:02;7.30;99.90
13322;DHT22;6730;46.248;6.930;2023-03-18T05:54:28;7.10;99.90
13322;DHT22;6730;46.248;6.930;2023-03-18T05:56:54;7.10;99.90
13322;DHT22;6730;46.248;6.930;2023-03-18T05:59:20;7.10;99.90
13322;DHT22;6730;46.248;6.930;2023-03-18T06:01:48;7.20;99.90
13322;DHT22;6730;46.248;6.930;2023-03-18T06:04:14;7.40;99.90
13322;DHT22;6730;46.248;6.930;2023-03-18T06:06:42;7.40;99.90
13322;DHT22;6730;46.248;6.930;2023-03-18T06:09:09;7.40;99.90
13322;DHT22;6730;46.248;6.930;2023-03-18T06:11:36;7.30;99.90
13322;DHT22;6730;46.248;6.930;2023-03-18T06:14:05;7.30;99.90
13322;DHT22;6730;46.248;6.930;2023-03-18T06:16:31;7.50;99.90
13322;DHT22;6730;46.248;6.930;2023-03-18T06:18:57;7.40;99.90
13322;DHT22;6730;46.248;6.930;2023-03-18T06:21:22;7.30;99.90
13322;DHT22;6730;46.248;6.930;2023-03-18T06:23:49;7.40;99.90
13322;DHT22;6730;46.248;6.930;2023-03-18T06:26:15;7.40;99.90
13322;DHT22;6730;46.248;6.930;2023-03-18T06:28:41;7.50;99.90
13322;DHT22;6730;46.248;6.930;2023-03-18T06:31:07;8.00;99.90
13322;DHT22;6730;46.248;6.930;2023-03-18T06:33:33;8.30;99.90
13322;DHT22;6730;46.248;6.930;2023-03-18T06:35:58;8.50;99.90
13322;DHT22;6730;46.248;6.930;2023-03-18T06:38:26;8.70;99.90
13322;DHT22;6730;46.248;6.930;2023-03-18T06:40:53;9.30;99.90
13322;DHT22;6730;46.248;6.930;2023-03-18T06:43:20;9.90;99.90
13322;DHT22;6730;46.248;6.930;2023-03-18T06:45:46;10.60;99.90
13322;DHT22;6730;46.248;6.930;2023-03-18T06:48:12;11.40;99.90
13322;DHT22;6730;46.248;6.930;2023-03-18T06:50:38;11.50;99.90
13322;DHT22;6730;46.248;6.930;2023-03-18T06:53:06;11.40;99.90
13322;DHT22;6730;46.248;6.930;2023-03-18T06:55:32;11.70;99.90
13322;DHT22;6730;46.248;6.930;2023-03-18T06:57:58;12.00;99.90
13322;DHT22;6730;46.248;6.930;2023-03-18T07:00:24;12.30;99.60
13322;DHT22;6730;46.248;6.930;2023-03-18T07:02:51;12.50;99.90
13322;DHT22;6730;46.248;6.930;2023-03-18T07:05:18;12.70;99.10
13322;DHT22;6730;46.248;6.930;2023-03-18T07:07:43;13.00;99.90
13322;DHT22;6730;46.248;6.930;2023-03-18T07:10:20;13.30;98.30
13322;DHT22;6730;46.248;6.930;2023-03-18T07:12:47;12.80;99.00
13322;DHT22;6730;46.248;6.930;2023-03-18T07:15:15;12.90;99.10
13322;DHT22;6730;46.248;6.930;2023-03-18T07:17:41;12.90;98.30
13322;DHT22;6730;46.248;6.930;2023-03-18T07:20:08;12.80;97.60
13322;DHT22;6730;46.248;6.930;2023-03-18T07:22:34;12.60;98.30
13322;DHT22;6730;46.248;6.930;2023-03-18T07:25:00;12.90;98.50
13322;DHT22;6730;46.248;6.930;2023-03-18T07:27:26;13.10;98.10
13322;DHT22;6730;46.248;6.930;2023-03-18T07:29:52;13.10;98.20
13322;DHT22;6730;46.248;6.930;2023-03-18T07:32:17;12.60;98.60
13322;DHT22;6730;46.248;6.930;2023-03-18T07:34:44;12.60;99.30
13322;DHT22;6730;46.248;6.930;2023-03-18T07:37:12;13.10;99.70
13322;DHT22;6730;46.248;6.930;2023-03-18T07:39:38;13.60;98.80
13322;DHT22;6730;46.248;6.930;2023-03-18T07:42:04;13.80;98.10
13322;DHT22;6730;46.248;6.930;2023-03-18T07:44:29;13.20;97.70
13322;DHT22;6730;46.248;6.930;2023-03-18T07:46:56;13.30;99.80
13322;DHT22;6730;46.248;6.930;2023-03-18T07:49:21;14.10;99.10
13322;DHT22;6730;46.248;6.930;2023-03-18T07:51:48;14.30;99.00
13322;DHT22;6730;46.248;6.930;2023-03-18T07:54:14;14.60;97.90
13322;DHT22;6730;46.248;6.930;2023-03-18T07:56:39;14.20;97.70
13322;DHT22;6730;46.248;6.930;2023-03-18T07:59:05;14.20;98.80
13322;DHT22;6730;46.248;6.930;2023-03-18T08:01:31;14.30;98.20
13322;DHT22;6730;46.248;6.930;2023-03-18T08:03:58;13.90;98.10
13322;DHT22;6730;46.248;6.930;2023-03-18T08:06:24;14.30;99.10
13322;DHT22;6730;46.248;6.930;2023-03-18T08:08:50;13.70;97.60
13322;DHT22;6730;46.248;6.930;2023-03-18T08:11:16;14.10;99.50
13322;DHT22;6730;46.248;6.930;2023-03-18T08:13:42;14.60;98.90
13322;DHT22;6730;46.248;6.930;2023-03-18T08:16:07;14.80;97.60
13322;DHT22;6730;46.248;6.930;2023-03-18T08:18:34;14.50;97.30
13322;DHT22;6730;46.248;6.930;2023-03-18T08:20:59;14.70;98.00
13322;DHT22;6730;46.248;6.930;2023-03-18T08:23:25;14.90;97.10
13322;DHT22;6730;46.248;6.930;2023-03-18T08:25:51;14.60;96.60
13322;DHT22;6730;46.248;6.930;2023-03-18T08:28:17;14.00;97.70
13322;DHT22;6730;46.248;6.930;2023-03-18T08:30:43;14.30;96.90
13322;DHT22;6730;46.248;6.930;2023-03-18T08:33:09;14.00;97.90
13322;DHT22;6730;46.248;6.930;2023-03-18T08:35:35;13.20;97.40
13322;DHT22;6730;46.248;6.930;2023-03-18T08:38:01;13.70;99.60
13322;DHT22;6730;46.248;6.930;2023-03-18T08:40:28;13.50;99.40
13322;DHT22;6730;46.248;6.930;2023-03-18T08:42:54;14.40;97.30
13322;DHT22;6730;46.248;6.930;2023-03-18T08:45:20;13.00;98.00
13322;DHT22;6730;46.248;6.930;2023-03-18T08:47:46;13.90;98.30
13322;DHT22;6730;46.248;6.930;2023-03-18T08:50:12;14.40;96.60
13322;DHT22;6730;46.248;6.930;2023-03-18T08:52:39;14.40;98.10
13322;DHT22;6730;46.248;6.930;2023-03-18T08:55:06;14.70;96.40
13322;DHT22;6730;46.248;6.930;2023-03-18T08:57:32;14.20;96.20
13322;DHT22;6730;46.248;6.930;2023-03-18T08:59:58;14.20;97.00
13322;DHT22;6730;46.248;6.930;2023-03-18T09:02:24;14.50;97.20
13322;DHT22;6730;46.248;6.930;2023-03-18T09:04:50;15.10;96.40
13322;DHT22;6730;46.248;6.930;2023-03-18T09:07:17;15.60;96.20
13322;DHT22;6730;46.248;6.930;2023-03-18T09:09:43;15.50;95.60
13322;DHT22;6730;46.248;6.930;2023-03-18T09:12:09;15.20;96.20
13322;DHT22;6730;46.248;6.930;2023-03-18T09:14:36;15.60;95.00
13322;DHT22;6730;46.248;6.930;2023-03-18T09:17:03;14.00;96.70
13322;DHT22;6730;46.248;6.930;2023-03-18T09:19:29;14.40;97.70
13322;DHT22;6730;46.248;6.930;2023-03-18T09:21:55;14.50;97.30
13322;DHT22;6730;46.248;6.930;2023-03-18T09:24:20;15.00;97.30
13322;DHT22;6730;46.248;6.930;2023-03-18T09:26:46;15.70;95.70
13322;DHT22;6730;46.248;6.930;2023-03-18T09:29:12;15.20;96.30
13322;DHT22;6730;46.248;6.930;2023-03-18T09:31:38;15.20;96.20
13322;DHT22;6730;46.248;6.930;2023-03-18T09:34:04;14.90;96.30
13322;DHT22;6730;46.248;6.930;2023-03-18T09:36:30;14.90;97.20
13322;DHT22;6730;46.248;6.930;2023-03-18T09:38:56;15.30;96.40
13322;DHT22;6730;46.248;6.930;2023-03-18T09:49:37;16.10;96.00
13322;DHT22;6730;46.248;6.930;2023-03-18T09:52:26;15.00;96.90
13322;DHT22;6730;46.248;6.930;2023-03-18T09:57:38;14.80;97.30
13322;DHT22;6730;46.248;6.930;2023-03-18T10:02:56;15.80;95.90
13322;DHT22;6730;46.248;6.930;2023-03-18T10:08:31;15.40;95.80
13322;DHT22;6730;46.248;6.930;2023-03-18T10:11:04;14.80;96.30
13322;DHT22;6730;46.248;6.930;2023-03-18T10:14:41;15.20;97.60
13322;DHT22;6730;46.248;6.930;2023-03-18T10:19:23;14.80;96.60
13322;DHT22;6730;46.248;6.930;2023-03-18T10:21:54;14.20;96.80
13322;DHT22;6730;46.248;6.930;2023-03-18T10:24:35;14.60;96.70
13322;DHT22;6730;46.248;6.930;2023-03-18T10:27:20;14.90;95.90
13322;DHT22;6730;46.248;6.930;2023-03-18T10:29:57;15.50;94.90
13322;DHT22;6730;46.248;6.930;2023-03-18T10:32:34;15.90;95.60
13322;DHT22;6730;46.248;6.930;2023-03-18T10:35:52;15.60;95.50
13322;DHT22;6730;46.248;6.930;2023-03-18T10:40:51;15.30;96.30
13322;DHT22;6730;46.248;6.930;2023-03-18T10:43:26;15.70;94.90
13322;DHT22;6730;46.248;6.930;2023-03-18T10:46:01;15.50;95.40
13322;DHT22;6730;46.248;6.930;2023-03-18T10:48:36;15.60;94.40
13322;DHT22;6730;46.248;6.930;2023-03-18T10:51:20;15.70;95.00
13322;DHT22;6730;46.248;6.930;2023-03-18T10:56:22;15.90;94.30
13322;DHT22;6730;46.248;6.930;2023-03-18T10:58:48;15.40;96.00
13322;DHT22;6730;46.248;6.930;2023-03-18T11:01:18;15.90;95.40
13322;DHT22;6730;46.248;6.930;2023-03-18T11:04:10;15.50;94.20
13322;DHT22;6730;46.248;6.930;2023-03-18T11:06:58;15.10;95.20
13322;DHT22;6730;46.248;6.930;2023-03-18T11:09:36;15.40;94.90
13322;DHT22;6730;46.248;6.930;2023-03-18T11:12:31;15.60;96.10
13322;DHT22;6730;46.248;6.930;2023-03-18T11:14:59;16.30;94.30
13322;DHT22;6730;46.248;6.930;2023-03-18T11:17:31;15.20;96.50
13322;DHT22;6730;46.248;6.930;2023-03-18T11:22:47;13.90;96.70
13322;DHT22;6730;46.248;6.930;2023-03-18T11:25:20;13.90;95.60
13322;DHT22;6730;46.248;6.930;2023-03-18T11:27:49;14.10;96.50
13322;DHT22;6730;46.248;6.930;2023-03-18T11:32:58;14.90;96.90
13322;DHT22;6730;46.248;6.930;2023-03-18T11:38:28;15.10;96.10
13322;DHT22;6730;46.248;6.930;2023-03-18T11:41:10;14.80;96.60
13322;DHT22;6730;46.248;6.930;2023-03-18T11:43:38;14.60;97.70
13322;DHT22;6730;46.248;6.930;2023-03-18T11:46:06;14.60;97.80
13322;DHT22;6730;46.248;6.930;2023-03-18T11:48:40;14.50;98.20
13322;DHT22;6730;46.248;6.930;2023-03-18T11:57:47;13.20;99.70
13322;DHT22;6730;46.248;6.930;2023-03-18T12:08:34;13.30;99.90
13322;DHT22;6730;46.248;6.930;2023-03-18T12:11:11;12.90;99.20
13322;DHT22;6730;46.248;6.930;2023-03-18T12:13:46;12.80;99.90
13322;DHT22;6730;46.248;6.930;2023-03-18T12:16:41;12.80;98.20
13322;DHT22;6730;46.248;6.930;2023-03-18T12:45:36;14.20;97.70
13322;DHT22;6730;46.248;6.930;2023-03-18T12:48:31;13.50;96.10
13322;DHT22;6730;46.248;6.930;2023-03-18T12:51:13;12.80;96.70
13322;DHT22;6730;46.248;6.930;2023-03-18T12:53:52;12.70;96.60
13322;DHT22;6730;46.248;6.930;2023-03-18T12:56:22;13.00;97.90
13322;DHT22;6730;46.248;6.930;2023-03-18T12:59:07;13.40;96.50
13322;DHT22;6730;46.248;6.930;2023-03-18T13:01:39;13.50;97.20
13322;DHT22;6730;46.248;6.930;2023-03-18T13:04:20;13.40;96.00
13322;DHT22;6730;46.248;6.930;2023-03-18T13:06:57;13.60;97.00
13322;DHT22;6730;46.248;6.930;2023-03-18T13:09:46;14.00;97.40
13322;DHT22;6730;46.248;6.930;2023-03-18T13:12:20;13.40;97.30
13322;DHT22;6730;46.248;6.930;2023-03-18T13:17:33;13.50;98.10
13322;DHT22;6730;46.248;6.930;2023-03-18T13:20:08;13.60;97.10
13322;DHT22;6730;46.248;6.930;2023-03-18T13:28:25;13.20;97.10
13322;DHT22;6730;46.248;6.930;2023-03-18T13:31:13;13.10;97.80
13322;DHT22;6730;46.248;6.930;2023-03-18T13:42:42;13.50;97.30
13322;DHT22;6730;46.248;6.930;2023-03-18T13:45:24;13.20;97.30
13322;DHT22;6730;46.248;6.930;2023-03-18T13:48:19;13.00;99.10
13322;DHT22;6730;46.248;6.930;2023-03-18T13:50:48;13.20;98.20
13322;DHT22;6730;46.248;6.930;2023-03-18T13:53:22;13.20;99.10
13322;DHT22;6730;46.248;6.930;2023-03-18T13:58:45;13.00;99.50
13322;DHT22;6730;46.248;6.930;2023-03-18T14:01:32;13.10;99.00
13322;DHT22;6730;46.248;6.930;2023-03-18T14:04:30;13.00;98.70
13322;DHT22;6730;46.248;6.930;2023-03-18T14:07:15;12.80;98.50
13322;DHT22;6730;46.248;6.930;2023-03-18T14:15:41;12.80;98.70
13322;DHT22;6730;46.248;6.930;2023-03-18T14:22:46;13.00;98.40
13322;DHT22;6730;46.248;6.930;2023-03-18T14:33:00;13.40;96.90
13322;DHT22;6730;46.248;6.930;2023-03-18T14:35:49;13.20;96.40
13322;DHT22;6730;46.248;6.930;2023-03-18T14:38:18;12.70;97.00
13322;DHT22;6730;46.248;6.930;2023-03-18T14:40:47;12.50;96.90
13322;DHT22;6730;46.248;6.930;2023-03-18T14:43:19;12.60;98.30
13322;DHT22;6730;46.248;6.930;2023-03-18T14:45:48;13.00;96.90
13322;DHT22;6730;46.248;6.930;2023-03-18T14:48:34;13.10;97.00
13322;DHT22;6730;46.248;6.930;2023-03-18T14:51:04;13.00;96.80
13322;DHT22;6730;46.248;6.930;2023-03-18T14:56:40;12.60;97.30
13322;DHT22;6730;46.248;6.930;2023-03-18T14:59:13;12.50;97.40
13322;DHT22;6730;46.248;6.930;2023-03-18T15:01:40;12.60;97.00
13322;DHT22;6730;46.248;6.930;2023-03-18T15:04:16;12.60;97.30
13322;DHT22;6730;46.248;6.930;2023-03-18T15:06:46;12.90;97.50
13322;DHT22;6730;46.248;6.930;2023-03-18T15:09:21;13.00;97.00
13322;DHT22;6730;46.248;6.930;2023-03-18T15:11:49;12.90;96.80
13322;DHT22;6730;46.248;6.930;2023-03-18T15:14:30;12.80;96.50
13322;DHT22;6730;46.248;6.930;2023-03-18T15:17:02;12.60;97.00
13322;DHT22;6730;46.248;6.930;2023-03-18T15:19:28;12.60;97.50
13322;DHT22;6730;46.248;6.930;2023-03-18T15:21:56;12.50;97.10
13322;DHT22;6730;46.248;6.930;2023-03-18T15:24:25;12.50;96.90
13322;DHT22;6730;46.248;6.930;2023-03-18T15:29:33;12.60;97.10
13322;DHT22;6730;46.248;6.930;2023-03-18T15:32:29;12.50;96.80
13322;DHT22;6730;46.248;6.930;2023-03-18T15:34:55;12.40;96.90
13322;DHT22;6730;46.248;6.930;2023-03-18T15:37:33;12.40;97.20
13322;DHT22;6730;46.248;6.930;2023-03-18T15:45:40;12.30;97.70
13322;DHT22;6730;46.248;6.930;2023-03-18T15:48:26;12.20;97.60
13322;DHT22;6730;46.248;6.930;2023-03-18T15:50:55;12.30;97.10
13322;DHT22;6730;46.248;6.930;2023-03-18T15:53:23;12.20;97.10
13322;DHT22;6730;46.248;6.930;2023-03-18T15:55:52;12.10;97.60
13322;DHT22;6730;46.248;6.930;2023-03-18T16:00:48;12.10;98.10
13322;DHT22;6730;46.248;6.930;2023-03-18T16:03:23;12.10;97.60
13322;DHT22;6730;46.248;6.930;2023-03-18T16:05:50;12.10;97.80
13322;DHT22;6730;46.248;6.930;2023-03-18T16:08:18;12.10;97.70
13322;DHT22;6730;46.248;6.930;2023-03-18T16:10:46;12.00;97.90
13322;DHT22;6730;46.248;6.930;2023-03-18T16:13:18;12.10;97.90
13322;DHT22;6730;46.248;6.930;2023-03-18T16:15:46;12.00;98.00
13322;DHT22;6730;46.248;6.930;2023-03-18T16:18:12;12.00;97.80
13322;DHT22;6730;46.248;6.930;2023-03-18T16:20:37;11.90;98.50
13322;DHT22;6730;46.248;6.930;2023-03-18T16:23:06;11.80;98.70
13322;DHT22;6730;46.248;6.930;2023-03-18T16:25:32;11.80;98.70
13322;DHT22;6730;46.248;6.930;2023-03-18T16:27:58;11.70;98.60
13322;DHT22;6730;46.248;6.930;2023-03-18T16:30:27;11.70;98.70
13322;DHT22;6730;46.248;6.930;2023-03-18T16:32:54;11.70;98.80
13322;DHT22;6730;46.248;6.930;2023-03-18T16:35:25;11.80;98.50
13322;DHT22;6730;46.248;6.930;2023-03-18T16:37:55;12.20;99.20
13322;DHT22;6730;46.248;6.930;2023-03-18T16:40:26;12.70;98.90
13322;DHT22;6730;46.248;6.930;2023-03-18T16:42:52;12.80;98.20
13322;DHT22;6730;46.248;6.930;2023-03-18T16:45:22;12.50;98.30
13322;DHT22;6730;46.248;6.930;2023-03-18T16:47:50;12.10;98.60
13322;DHT22;6730;46.248;6.930;2023-03-18T16:50:21;11.80;99.20
13322;DHT22;6730;46.248;6.930;2023-03-18T16:52:48;11.70;99.30
13322;DHT22;6730;46.248;6.930;2023-03-18T16:55:16;12.20;99.50
13322;DHT22;6730;46.248;6.930;2023-03-18T16:58:00;12.40;99.40
13322;DHT22;6730;46.248;6.930;2023-03-18T17:00:28;12.60;99.60
13322;DHT22;6730;46.248;6.930;2023-03-18T17:02:59;12.80;99.20
13322;DHT22;6730;46.248;6.930;2023-03-18T17:05:26;12.70;98.80
13322;DHT22;6730;46.248;6.930;2023-03-18T17:07:52;12.70;98.30
13322;DHT22;6730;46.248;6.930;2023-03-18T17:10:20;12.80;98.80
13322;DHT22;6730;46.248;6.930;2023-03-18T17:13:06;13.20;98.30
13322;DHT22;6730;46.248;6.930;2023-03-18T17:15:35;13.50;97.10
13322;DHT22;6730;46.248;6.930;2023-03-18T17:18:02;13.40;97.90
13322;DHT22;6730;46.248;6.930;2023-03-18T17:20:30;13.40;98.40
13322;DHT22;6730;46.248;6.930;2023-03-18T17:22:57;13.30;97.30
13322;DHT22;6730;46.248;6.930;2023-03-18T17:25:24;13.50;97.10
13322;DHT22;6730;46.248;6.930;2023-03-18T17:28:00;13.00;98.30
13322;DHT22;6730;46.248;6.930;2023-03-18T17:30:37;12.30;98.50
13322;DHT22;6730;46.248;6.930;2023-03-18T17:33:19;11.90;99.60
13322;DHT22;6730;46.248;6.930;2023-03-18T17:35:44;12.30;99.90
13322;DHT22;6730;46.248;6.930;2023-03-18T17:38:10;12.60;99.90
13322;DHT22;6730;46.248;6.930;2023-03-18T17:40:36;12.90;99.40
13322;DHT22;6730;46.248;6.930;2023-03-18T17:43:01;13.40;99.30
13322;DHT22;6730;46.248;6.930;2023-03-18T17:45:33;13.70;98.40
13322;DHT22;6730;46.248;6.930;2023-03-18T17:48:23;13.10;98.70
13322;DHT22;6730;46.248;6.930;2023-03-18T17:50:54;12.40;98.30
13322;DHT22;6730;46.248;6.930;2023-03-18T17:53:48;12.20;98.60
13322;DHT22;6730;46.248;6.930;2023-03-18T17:56:17;12.70;99.70
13322;DHT22;6730;46.248;6.930;2023-03-18T17:58:46;13.10;98.00
13322;DHT22;6730;46.248;6.930;2023-03-18T18:01:14;13.30;97.60
13322;DHT22;6730;46.248;6.930;2023-03-18T18:03:40;12.90;98.70
13322;DHT22;6730;46.248;6.930;2023-03-18T18:06:09;13.10;99.00
13322;DHT22;6730;46.248;6.930;2023-03-18T18:08:36;13.60;98.30
13322;DHT22;6730;46.248;6.930;2023-03-18T18:11:09;13.90;97.70
13322;DHT22;6730;46.248;6.930;2023-03-18T18:13:37;14.10;97.20
13322;DHT22;6730;46.248;6.930;2023-03-18T18:16:04;14.30;96.90
13322;DHT22;6730;46.248;6.930;2023-03-18T18:18:31;14.40;96.70